sensor_id;sensor_type;location;lat;lon;timestamp;P1;durP1;ratioP1;P2;durP2;ratioP2
14688;SDS011;7432;48.728;9.154;2024-03-23T00:53:32;10.50;;;9.70;;
14688;SDS011;7432;48.728;9.154;2024-03-23T00:55:59;10.27;;;9.57;;
14688;SDS011;7432;48.728;9.154;2024-03-23T00:58:24;10.00;;;9.30;;
14688;SDS011;7432;48.728;9.154;2024-03-23T01:00:51;10.70;;;9.80;;
14688;SDS011;7432;48.728;9.154;2024-03-23T01:03:16;9.83;;;9.20;;
14688;SDS011;7432;48.728;9.154;2024-03-23T01:05:43;10.00;;;9.40;;
14688;SDS011;7432;48.728;9.154;2024-03-23T01:08:08;10.20;;;9.50;;
14688;SDS011;7432;48.728;9.154;2024-03-23T01:10:36;9.97;;;9.27;;
14688;SDS011;7432;48.728;9.154;2024-03-23T01:13:01;10.20;;;9.43;;
14688;SDS011;7432;48.728;9.154;2024-03-23T01:15:28;9.83;;;9.10;;
14688;SDS011;7432;48.728;9.154;2024-03-23T01:17:53;9.80;;;9.20;;
14688;SDS011;7432;48.728;9.154;2024-03-23T01:20:19;9.80;;;9.20;;
14688;SDS011;7432;48.728;9.154;2024-03-23T01:22:45;10.03;;;9.43;;
14688;SDS011;7432;48.728;9.154;2024-03-23T01:25:11;9.47;;;8.80;;
14688;SDS011;7432;48.728;9.154;2024-03-23T01:27:38;9.83;;;9.23;;
14688;SDS011;7432;48.728;9.154;2024-03-23T01:30:05;9.97;;;9.37;;
14688;SDS011;7432;48.728;9.154;2024-03-23T01:32:31;9.77;;;9.07;;
14688;SDS011;7432;48.728;9.154;2024-03-23T01:34:57;10.40;;;9.70;;
14688;SDS011;7432;48.728;9.154;2024-03-23T01:37:23;9.67;;;9.07;;
14688;SDS011;7432;48.728;9.154;2024-03-23T01:39:49;10.00;;;9.30;;
14688;SDS011;7432;48.728;9.154;2024-03-23T01:42:14;10.07;;;9.23;;
14688;SDS011;7432;48.728;9.154;2024-03-23T01:44:42;9.80;;;9.20;;
14688;SDS011;7432;48.728;9.154;2024-03-23T01:47:07;10.50;;;9.70;;
14688;SDS011;7432;48.728;9.154;2024-03-23T01:49:34;10.10;;;9.40;;
14688;SDS011;7432;48.728;9.154;2024-03-23T01:52:00;9.87;;;9.27;;
14688;SDS011;7432;48.728;9.154;2024-03-23T01:54:27;10.67;;;9.90;;
14688;SDS011;7432;48.728;9.154;2024-03-23T01:56:53;10.17;;;9.57;;
14688;SDS011;7432;48.728;9.154;2024-03-23T01:59:20;9.77;;;9.07;;
14688;SDS011;7432;48.728;9.154;2024-03-23T02:01:47;9.73;;;9.00;;
14688;SDS011;7432;48.728;9.154;2024-03-23T02:04:13;9.50;;;8.93;;
14688;SDS011;7432;48.728;9.154;2024-03-23T02:06:39;9.40;;;8.80;;
14688;SDS011;7432;48.728;9.154;2024-03-23T02:09:05;9.63;;;9.03;;
14688;SDS011;7432;48.728;9.154;2024-03-23T02:11:31;10.07;;;9.37;;
14688;SDS011;7432;48.728;9.154;2024-03-23T02:13:57;9.60;;;9.00;;
14688;SDS011;7432;48.728;9.154;2024-03-23T02:16:23;10.17;;;9.47;;
14688;SDS011;7432;48.728;9.154;2024-03-23T02:18:50;10.33;;;9.63;;
14688;SDS011;7432;48.728;9.154;2024-03-23T02:21:16;10.67;;;9.97;;
14688;SDS011;7432;48.728;9.154;2024-03-23T02:23:43;9.80;;;9.20;;
14688;SDS011;7432;48.728;9.154;2024-03-23T02:26:09;10.80;;;10.10;;
14688;SDS011;7432;48.728;9.154;2024-03-23T02:28:35;10.97;;;10.10;;
14688;SDS011;7432;48.728;9.154;2024-03-23T02:31:01;10.27;;;9.60;;
14688;SDS011;7432;48.728;9.154;2024-03-23T02:33:27;10.77;;;9.97;;
14688;SDS011;7432;48.728;9.154;2024-03-23T02:35:55;10.37;;;9.67;;
14688;SDS011;7432;48.728;9.154;2024-03-23T02:38:22;10.13;;;9.53;;
14688;SDS011;7432;48.728;9.154;2024-03-23T02:40:48;10.03;;;9.33;;
14688;SDS011;7432;48.728;9.154;2024-03-23T02:43:15;10.67;;;9.97;;
14688;SDS011;7432;48.728;9.154;2024-03-23T02:45:40;10.60;;;9.90;;
14688;SDS011;7432;48.728;9.154;2024-03-23T02:48:07;11.10;;;10.27;;
14688;SDS011;7432;48.728;9.154;2024-03-23T02:50:32;9.90;;;9.07;;
14688;SDS011;7432;48.728;9.154;2024-03-23T02:52:59;10.33;;;9.53;;
14688;SDS011;7432;48.728;9.154;2024-03-23T02:55:24;10.80;;;10.00;;
14688;SDS011;7432;48.728;9.154;2024-03-23T02:57:52;10.27;;;9.57;;
14688;SDS011;7432;48.728;9.154;2024-03-23T03:00:17;10.10;;;9.50;;
14688;SDS011;7432;48.728;9.154;2024-03-23T03:02:44;10.07;;;9.27;;
14688;SDS011;7432;48.728;9.154;2024-03-23T03:05:09;10.60;;;9.90;;
14688;SDS011;7432;48.728;9.154;2024-03-23T03:07:36;10.07;;;9.33;;
14688;SDS011;7432;48.728;9.154;2024-03-23T03:10:04;10.20;;;9.40;;
14688;SDS011;7432;48.728;9.154;2024-03-23T03:12:32;10.43;;;9.53;;
14688;SDS011;7432;48.728;9.154;2024-03-23T03:14:59;10.33;;;9.57;;
14688;SDS011;7432;48.728;9.154;2024-03-23T03:17:25;10.03;;;9.43;;
14688;SDS011;7432;48.728;9.154;2024-03-23T03:19:51;10.13;;;9.53;;
14688;SDS011;7432;48.728;9.154;2024-03-23T03:22:20;10.53;;;9.70;;
14688;SDS011;7432;48.728;9.154;2024-03-23T03:24:46;10.43;;;9.70;;
14688;SDS011;7432;48.728;9.154;2024-03-23T03:27:12;10.20;;;9.50;;
14688;SDS011;7432;48.728;9.154;2024-03-23T03:29:37;10.60;;;9.70;;
14688;SDS011;7432;48.728;9.154;2024-03-23T03:32:05;10.03;;;9.40;;
14688;SDS011;7432;48.728;9.154;2024-03-23T03:34:31;11.23;;;10.33;;
14688;SDS011;7432;48.728;9.154;2024-03-23T03:36:57;10.17;;;9.37;;
14688;SDS011;7432;48.728;9.154;2024-03-23T03:39:23;10.17;;;9.43;;
14688;SDS011;7432;48.728;9.154;2024-03-23T03:41:49;10.90;;;10.10;;
14688;SDS011;7432;48.728;9.154;2024-03-23T03:44:15;10.90;;;10.20;;
14688;SDS011;7432;48.728;9.154;2024-03-23T03:46:42;11.87;;;10.87;;
14688;SDS011;7432;48.728;9.154;2024-03-23T03:49:10;10.70;;;9.90;;
14688;SDS011;7432;48.728;9.154;2024-03-23T03:51:35;10.43;;;9.83;;
14688;SDS011;7432;48.728;9.154;2024-03-23T03:54:01;10.57;;;9.87;;
14688;SDS011;7432;48.728;9.154;2024-03-23T03:56:27;11.13;;;10.23;;
14688;SDS011;7432;48.728;9.154;2024-03-23T03:58:53;11.10;;;10.40;;
14688;SDS011;7432;48.728;9.154;2024-03-23T04:01:19;11.23;;;10.33;;
14688;SDS011;7432;48.728;9.154;2024-03-23T04:03:45;10.93;;;10.27;;
14688;SDS011;7432;48.728;9.154;2024-03-23T04:06:15;10.60;;;9.90;;
14688;SDS011;7432;48.728;9.154;2024-03-23T04:08:45;10.70;;;10.10;;
14688;SDS011;7432;48.728;9.154;2024-03-23T04:11:10;11.10;;;10.30;;
14688;SDS011;7432;48.728;9.154;2024-03-23T04:13:37;10.70;;;10.00;;
14688;SDS011;7432;48.728;9.154;2024-03-23T04:16:02;10.63;;;9.83;;
14688;SDS011;7432;48.728;9.154;2024-03-23T04:18:29;10.50;;;9.90;;
14688;SDS011;7432;48.728;9.154;2024-03-23T04:20:54;11.30;;;10.50;;
14688;SDS011;7432;48.728;9.154;2024-03-23T04:23:22;11.20;;;10.50;;
14688;SDS011;7432;48.728;9.154;2024-03-23T04:25:47;11.23;;;10.37;;
14688;SDS011;7432;48.728;9.154;2024-03-23T04:28:14;11.00;;;10.30;;
14688;SDS011;7432;48.728;9.154;2024-03-23T04:30:39;11.00;;;10.10;;
14688;SDS011;7432;48.728;9.154;2024-03-23T04:33:05;10.87;;;10.17;;
14688;SDS011;7432;48.728;9.154;2024-03-23T04:35:31;10.87;;;10.13;;
14688;SDS011;7432;48.728;9.154;2024-03-23T04:37:57;10.77;;;10.00;;
14688;SDS011;7432;48.728;9.154;2024-03-23T04:40:25;11.40;;;10.60;;
14688;SDS011;7432;48.728;9.154;2024-03-23T04:42:52;11.17;;;10.30;;
14688;SDS011;7432;48.728;9.154;2024-03-23T04:45:18;10.73;;;10.03;;
14688;SDS011;7432;48.728;9.154;2024-03-23T04:47:45;11.23;;;10.50;;
14688;SDS011;7432;48.728;9.154;2024-03-23T04:50:11;10.90;;;10.20;;
14688;SDS011;7432;48.728;9.154;2024-03-23T04:52:37;10.97;;;10.27;;
14688;SDS011;7432;48.728;9.154;2024-03-23T04:55:05;11.07;;;10.27;;
14688;SDS011;7432;48.728;9.154;2024-03-23T04:57:33;10.57;;;9.67;;
14688;SDS011;7432;48.728;9.154;2024-03-23T04:59:59;11.00;;;10.00;;
14688;SDS011;7432;48.728;9.154;2024-03-23T05:02:24;11.00;;;10.17;;
14688;SDS011;7432;48.728;9.154;2024-03-23T05:04:52;12.10;;;11.03;;
14688;SDS011;7432;48.728;9.154;2024-03-23T05:07:17;12.57;;;11.40;;
14688;SDS011;7432;48.728;9.154;2024-03-23T05:09:43;11.83;;;10.73;;
14688;SDS011;7432;48.728;9.154;2024-03-23T05:12:09;13.17;;;11.97;;
14688;SDS011;7432;48.728;9.154;2024-03-23T05:14:37;13.27;;;12.27;;
14688;SDS011;7432;48.728;9.154;2024-03-23T05:17:02;15.03;;;13.73;;
14688;SDS011;7432;48.728;9.154;2024-03-23T05:19:29;15.73;;;14.43;;
14688;SDS011;7432;48.728;9.154;2024-03-23T05:21:54;16.87;;;15.37;;
14688;SDS011;7432;48.728;9.154;2024-03-23T05:24:21;17.90;;;16.20;;
14688;SDS011;7432;48.728;9.154;2024-03-23T05:26:46;17.20;;;15.70;;
14688;SDS011;7432;48.728;9.154;2024-03-23T05:29:12;17.40;;;15.73;;
14688;SDS011;7432;48.728;9.154;2024-03-23T05:31:40;17.77;;;16.07;;
14688;SDS011;7432;48.728;9.154;2024-03-23T05:34:07;17.80;;;16.17;;
14688;SDS011;7432;48.728;9.154;2024-03-23T05:36:32;18.77;;;17.00;;
14688;SDS011;7432;48.728;9.154;2024-03-23T05:38:58;18.00;;;16.27;;
14688;SDS011;7432;48.728;9.154;2024-03-23T05:41:24;17.93;;;16.37;;
14688;SDS011;7432;48.728;9.154;2024-03-23T05:43:50;18.57;;;16.67;;
14688;SDS011;7432;48.728;9.154;2024-03-23T05:46:15;17.17;;;15.57;;
14688;SDS011;7432;48.728;9.154;2024-03-23T05:48:44;18.47;;;16.67;;
14688;SDS011;7432;48.728;9.154;2024-03-23T05:51:10;18.20;;;16.50;;
14688;SDS011;7432;48.728;9.154;2024-03-23T05:53:37;16.33;;;14.97;;
14688;SDS011;7432;48.728;9.154;2024-03-23T05:56:04;17.63;;;16.03;;
14688;SDS011;7432;48.728;9.154;2024-03-23T05:58:30;15.73;;;14.23;;
14688;SDS011;7432;48.728;9.154;2024-03-23T06:00:57;15.83;;;14.43;;
14688;SDS011;7432;48.728;9.154;2024-03-23T06:03:23;13.13;;;12.10;;
14688;SDS011;7432;48.728;9.154;2024-03-23T06:05:51;13.23;;;12.23;;
14688;SDS011;7432;48.728;9.154;2024-03-23T06:08:18;12.50;;;11.20;;
14688;SDS011;7432;48.728;9.154;2024-03-23T06:10:44;11.67;;;10.77;;
14688;SDS011;7432;48.728;9.154;2024-03-23T06:13:10;11.23;;;10.43;;
14688;SDS011;7432;48.728;9.154;2024-03-23T06:15:36;9.57;;;8.87;;
14688;SDS011;7432;48.728;9.154;2024-03-23T06:18:03;10.10;;;9.40;;
14688;SDS011;7432;48.728;9.154;2024-03-23T06:20:30;8.47;;;7.97;;
14688;SDS011;7432;48.728;9.154;2024-03-23T06:22:57;8.93;;;8.43;;
14688;SDS011;7432;48.728;9.154;2024-03-23T06:25:23;9.27;;;8.70;;
14688;SDS011;7432;48.728;9.154;2024-03-23T06:27:48;9.03;;;8.47;;
14688;SDS011;7432;48.728;9.154;2024-03-23T06:30:15;9.00;;;8.50;;
14688;SDS011;7432;48.728;9.154;2024-03-23T06:32:40;8.63;;;8.13;;
14688;SDS011;7432;48.728;9.154;2024-03-23T06:35:07;7.80;;;7.40;;
14688;SDS011;7432;48.728;9.154;2024-03-23T06:37:34;8.37;;;7.77;;
14688;SDS011;7432;48.728;9.154;2024-03-23T06:40:02;8.50;;;8.00;;
14688;SDS011;7432;48.728;9.154;2024-03-23T06:42:29;8.00;;;7.60;;
14688;SDS011;7432;48.728;9.154;2024-03-23T06:44:56;7.30;;;7.00;;
14688;SDS011;7432;48.728;9.154;2024-03-23T06:47:21;7.40;;;7.00;;
14688;SDS011;7432;48.728;9.154;2024-03-23T06:49:47;7.80;;;7.40;;
14688;SDS011;7432;48.728;9.154;2024-03-23T06:52:13;8.30;;;7.90;;
14688;SDS011;7432;48.728;9.154;2024-03-23T06:54:39;8.03;;;7.63;;
14688;SDS011;7432;48.728;9.154;2024-03-23T06:57:06;7.40;;;6.97;;
14688;SDS011;7432;48.728;9.154;2024-03-23T06:59:32;8.00;;;7.60;;
14688;SDS011;7432;48.728;9.154;2024-03-23T07:01:58;7.60;;;7.20;;
14688;SDS011;7432;48.728;9.154;2024-03-23T07:04:24;7.70;;;7.20;;
14688;SDS011;7432;48.728;9.154;2024-03-23T07:06:49;7.30;;;6.90;;
14688;SDS011;7432;48.728;9.154;2024-03-23T07:09:16;7.73;;;7.23;;
14688;SDS011;7432;48.728;9.154;2024-03-23T07:11:42;7.60;;;7.20;;
14688;SDS011;7432;48.728;9.154;2024-03-23T07:14:09;7.63;;;7.07;;
14688;SDS011;7432;48.728;9.154;2024-03-23T07:16:37;7.53;;;7.13;;
14688;SDS011;7432;48.728;9.154;2024-03-23T07:19:03;7.03;;;6.63;;
14688;SDS011;7432;48.728;9.154;2024-03-23T07:21:28;7.50;;;7.20;;
14688;SDS011;7432;48.728;9.154;2024-03-23T07:23:55;7.50;;;7.20;;
14688;SDS011;7432;48.728;9.154;2024-03-23T07:26:20;7.67;;;7.27;;
14688;SDS011;7432;48.728;9.154;2024-03-23T07:28:46;7.83;;;7.43;;
14688;SDS011;7432;48.728;9.154;2024-03-23T07:31:14;7.50;;;7.20;;
14688;SDS011;7432;48.728;9.154;2024-03-23T07:33:41;7.60;;;7.20;;
14688;SDS011;7432;48.728;9.154;2024-03-23T07:36:08;7.80;;;7.50;;
14688;SDS011;7432;48.728;9.154;2024-03-23T07:38:34;7.90;;;7.50;;
14688;SDS011;7432;48.728;9.154;2024-03-23T07:41:03;7.70;;;7.40;;
14688;SDS011;7432;48.728;9.154;2024-03-23T07:43:30;7.83;;;7.43;;
14688;SDS011;7432;48.728;9.154;2024-03-23T07:45:56;7.37;;;7.07;;
14688;SDS011;7432;48.728;9.154;2024-03-23T07:48:24;7.97;;;7.57;;
14688;SDS011;7432;48.728;9.154;2024-03-23T07:50:57;8.00;;;7.60;;
14688;SDS011;7432;48.728;9.154;2024-03-23T07:53:27;7.40;;;7.10;;
14688;SDS011;7432;48.728;9.154;2024-03-23T07:55:54;7.77;;;7.37;;
14688;SDS011;7432;48.728;9.154;2024-03-23T07:58:21;8.00;;;7.60;;
14688;SDS011;7432;48.728;9.154;2024-03-23T08:00:46;8.40;;;8.00;;
14688;SDS011;7432;48.728;9.154;2024-03-23T08:03:13;8.07;;;7.67;;
14688;SDS011;7432;48.728;9.154;2024-03-23T08:05:40;7.87;;;7.47;;
14688;SDS011;7432;48.728;9.154;2024-03-23T08:08:06;8.20;;;7.80;;
14688;SDS011;7432;48.728;9.154;2024-03-23T08:10:31;7.67;;;7.27;;
14688;SDS011;7432;48.728;9.154;2024-03-23T08:12:58;7.07;;;6.77;;
14688;SDS011;7432;48.728;9.154;2024-03-23T08:15:23;7.77;;;7.37;;
14688;SDS011;7432;48.728;9.154;2024-03-23T08:17:49;8.13;;;7.73;;
14688;SDS011;7432;48.728;9.154;2024-03-23T08:20:15;7.43;;;7.13;;
14688;SDS011;7432;48.728;9.154;2024-03-23T08:22:43;7.10;;;6.80;;
14688;SDS011;7432;48.728;9.154;2024-03-23T08:25:08;7.90;;;7.43;;
14688;SDS011;7432;48.728;9.154;2024-03-23T08:27:34;6.47;;;6.17;;
14688;SDS011;7432;48.728;9.154;2024-03-23T08:30:00;6.77;;;6.47;;
14688;SDS011;7432;48.728;9.154;2024-03-23T08:32:27;7.70;;;7.30;;
14688;SDS011;7432;48.728;9.154;2024-03-23T08:34:52;7.80;;;7.40;;
14688;SDS011;7432;48.728;9.154;2024-03-23T08:37:19;7.23;;;6.83;;
14688;SDS011;7432;48.728;9.154;2024-03-23T08:39:45;8.43;;;7.93;;
14688;SDS011;7432;48.728;9.154;2024-03-23T08:42:12;7.83;;;7.43;;
14688;SDS011;7432;48.728;9.154;2024-03-23T08:44:37;8.87;;;8.43;;
14688;SDS011;7432;48.728;9.154;2024-03-23T08:47:04;9.27;;;8.70;;
14688;SDS011;7432;48.728;9.154;2024-03-23T08:49:30;9.67;;;9.07;;
14688;SDS011;7432;48.728;9.154;2024-03-23T08:51:56;9.50;;;8.90;;
14688;SDS011;7432;48.728;9.154;2024-03-23T08:54:21;9.67;;;9.17;;
14688;SDS011;7432;48.728;9.154;2024-03-23T08:56:49;9.50;;;8.90;;
14688;SDS011;7432;48.728;9.154;2024-03-23T08:59:15;9.83;;;9.33;;
14688;SDS011;7432;48.728;9.154;2024-03-23T09:01:41;9.00;;;8.50;;
14688;SDS011;7432;48.728;9.154;2024-03-23T09:04:06;9.57;;;9.07;;
14688;SDS011;7432;48.728;9.154;2024-03-23T09:06:33;9.40;;;8.80;;
14688;SDS011;7432;48.728;9.154;2024-03-23T09:08:58;9.73;;;9.20;;
14688;SDS011;7432;48.728;9.154;2024-03-23T09:11:24;10.30;;;9.57;;
14688;SDS011;7432;48.728;9.154;2024-03-23T09:13:51;9.63;;;8.93;;
14688;SDS011;7432;48.728;9.154;2024-03-23T09:16:17;10.43;;;9.60;;
14688;SDS011;7432;48.728;9.154;2024-03-23T09:18:43;10.43;;;9.50;;
14688;SDS011;7432;48.728;9.154;2024-03-23T09:21:10;10.03;;;9.27;;
14688;SDS011;7432;48.728;9.154;2024-03-23T09:23:38;10.70;;;9.80;;
14688;SDS011;7432;48.728;9.154;2024-03-23T09:26:04;10.47;;;9.67;;
14688;SDS011;7432;48.728;9.154;2024-03-23T09:28:32;10.53;;;9.63;;
14688;SDS011;7432;48.728;9.154;2024-03-23T09:31:03;10.50;;;9.60;;
14688;SDS011;7432;48.728;9.154;2024-03-23T09:33:28;10.97;;;9.97;;
14688;SDS011;7432;48.728;9.154;2024-03-23T09:35:55;11.57;;;9.67;;
14688;SDS011;7432;48.728;9.154;2024-03-23T09:38:21;10.80;;;9.97;;
14688;SDS011;7432;48.728;9.154;2024-03-23T09:40:48;10.50;;;9.63;;
14688;SDS011;7432;48.728;9.154;2024-03-23T09:43:18;11.23;;;10.27;;
14688;SDS011;7432;48.728;9.154;2024-03-23T09:45:45;11.63;;;10.53;;
14688;SDS011;7432;48.728;9.154;2024-03-23T09:48:12;11.90;;;10.63;;
14688;SDS011;7432;48.728;9.154;2024-03-23T09:50:39;11.37;;;10.30;;
14688;SDS011;7432;48.728;9.154;2024-03-23T09:53:05;12.23;;;11.10;;
14688;SDS011;7432;48.728;9.154;2024-03-23T09:55:33;10.47;;;9.67;;
14688;SDS011;7432;48.728;9.154;2024-03-23T09:57:59;11.70;;;10.60;;
14688;SDS011;7432;48.728;9.154;2024-03-23T10:00:25;10.23;;;9.43;;
14688;SDS011;7432;48.728;9.154;2024-03-23T10:02:51;10.77;;;9.77;;
14688;SDS011;7432;48.728;9.154;2024-03-23T10:05:21;11.17;;;10.27;;
14688;SDS011;7432;48.728;9.154;2024-03-23T10:07:47;12.60;;;11.00;;
14688;SDS011;7432;48.728;9.154;2024-03-23T10:10:14;11.97;;;11.00;;
14688;SDS011;7432;48.728;9.154;2024-03-23T10:12:43;11.60;;;10.40;;
14688;SDS011;7432;48.728;9.154;2024-03-23T10:15:15;11.03;;;10.03;;
14688;SDS011;7432;48.728;9.154;2024-03-23T10:17:44;11.83;;;10.77;;
14688;SDS011;7432;48.728;9.154;2024-03-23T10:20:10;10.60;;;9.70;;
14688;SDS011;7432;48.728;9.154;2024-03-23T10:22:38;11.40;;;10.40;;
14688;SDS011;7432;48.728;9.154;2024-03-23T10:25:08;11.33;;;10.23;;
14688;SDS011;7432;48.728;9.154;2024-03-23T10:27:34;10.90;;;10.03;;
14688;SDS011;7432;48.728;9.154;2024-03-23T10:30:07;11.87;;;10.70;;
14688;SDS011;7432;48.728;9.154;2024-03-23T10:32:34;10.73;;;9.83;;
14688;SDS011;7432;48.728;9.154;2024-03-23T10:35:13;11.20;;;10.17;;
14688;SDS011;7432;48.728;9.154;2024-03-23T10:37:40;11.37;;;10.27;;
14688;SDS011;7432;48.728;9.154;2024-03-23T10:40:09;12.83;;;10.73;;
14688;SDS011;7432;48.728;9.154;2024-03-23T10:42:37;10.67;;;9.90;;
14688;SDS011;7432;48.728;9.154;2024-03-23T10:45:04;10.90;;;9.90;;
14688;SDS011;7432;48.728;9.154;2024-03-23T10:47:30;10.23;;;9.47;;
14688;SDS011;7432;48.728;9.154;2024-03-23T10:49:57;10.80;;;10.00;;
14688;SDS011;7432;48.728;9.154;2024-03-23T10:52:22;11.10;;;10.13;;
14688;SDS011;7432;48.728;9.154;2024-03-23T10:54:51;12.57;;;10.43;;
14688;SDS011;7432;48.728;9.154;2024-03-23T10:57:17;14.53;;;11.33;;
14688;SDS011;7432;48.728;9.154;2024-03-23T10:59:46;11.17;;;10.17;;
14688;SDS011;7432;48.728;9.154;2024-03-23T11:02:18;8.90;;;8.27;;
14688;SDS011;7432;48.728;9.154;2024-03-23T11:04:45;8.73;;;8.10;;
14688;SDS011;7432;48.728;9.154;2024-03-23T11:07:28;9.60;;;8.90;;
14688;SDS011;7432;48.728;9.154;2024-03-23T11:09:57;10.27;;;9.30;;
14688;SDS011;7432;48.728;9.154;2024-03-23T11:12:26;9.13;;;8.33;;
14688;SDS011;7432;48.728;9.154;2024-03-23T11:15:00;8.00;;;7.50;;
14688;SDS011;7432;48.728;9.154;2024-03-23T11:17:27;9.40;;;8.60;;
14688;SDS011;7432;48.728;9.154;2024-03-23T11:19:55;9.30;;;8.40;;
14688;SDS011;7432;48.728;9.154;2024-03-23T11:22:40;9.47;;;8.77;;
14688;SDS011;7432;48.728;9.154;2024-03-23T11:25:20;9.60;;;8.83;;
14688;SDS011;7432;48.728;9.154;2024-03-23T11:27:47;8.97;;;8.37;;
14688;SDS011;7432;48.728;9.154;2024-03-23T11:30:15;9.03;;;8.33;;
14688;SDS011;7432;48.728;9.154;2024-03-23T11:32:42;8.90;;;8.20;;
14688;SDS011;7432;48.728;9.154;2024-03-23T11:35:09;9.43;;;8.70;;
14688;SDS011;7432;48.728;9.154;2024-03-23T11:37:35;9.10;;;8.33;;
14688;SDS011;7432;48.728;9.154;2024-03-23T11:40:16;9.17;;;8.47;;
14688;SDS011;7432;48.728;9.154;2024-03-23T11:42:44;9.30;;;8.60;;
14688;SDS011;7432;48.728;9.154;2024-03-23T11:45:10;8.80;;;8.20;;
14688;SDS011;7432;48.728;9.154;2024-03-23T11:47:37;9.60;;;8.90;;
14688;SDS011;7432;48.728;9.154;2024-03-23T11:50:03;9.17;;;8.50;;
14688;SDS011;7432;48.728;9.154;2024-03-23T11:52:29;9.50;;;8.80;;
14688;SDS011;7432;48.728;9.154;2024-03-23T11:55:02;8.30;;;7.60;;
14688;SDS011;7432;48.728;9.154;2024-03-23T11:57:28;9.87;;;9.07;;
14688;SDS011;7432;48.728;9.154;2024-03-23T11:59:57;9.43;;;8.67;;
14688;SDS011;7432;48.728;9.154;2024-03-23T12:02:22;9.40;;;8.80;;
14688;SDS011;7432;48.728;9.154;2024-03-23T12:04:49;9.90;;;9.03;;
14688;SDS011;7432;48.728;9.154;2024-03-23T12:07:14;9.03;;;8.40;;
14688;SDS011;7432;48.728;9.154;2024-03-23T12:09:43;8.63;;;7.90;;
14688;SDS011;7432;48.728;9.154;2024-03-23T12:12:11;8.97;;;8.13;;
14688;SDS011;7432;48.728;9.154;2024-03-23T12:14:41;9.00;;;8.33;;
14688;SDS011;7432;48.728;9.154;2024-03-23T12:17:08;9.20;;;8.30;;
14688;SDS011;7432;48.728;9.154;2024-03-23T12:19:38;10.03;;;9.23;;
14688;SDS011;7432;48.728;9.154;2024-03-23T12:22:04;9.80;;;9.10;;
14688;SDS011;7432;48.728;9.154;2024-03-23T12:24:31;9.90;;;9.10;;
14688;SDS011;7432;48.728;9.154;2024-03-23T12:26:59;9.10;;;8.30;;
14688;SDS011;7432;48.728;9.154;2024-03-23T12:29:26;10.20;;;9.30;;
14688;SDS011;7432;48.728;9.154;2024-03-23T12:31:52;9.20;;;8.50;;
14688;SDS011;7432;48.728;9.154;2024-03-23T12:34:20;10.87;;;9.60;;
14688;SDS011;7432;48.728;9.154;2024-03-23T12:36:46;10.07;;;9.20;;
14688;SDS011;7432;48.728;9.154;2024-03-23T12:39:12;9.20;;;8.40;;
14688;SDS011;7432;48.728;9.154;2024-03-23T12:41:38;10.53;;;8.90;;
14688;SDS011;7432;48.728;9.154;2024-03-23T12:44:03;9.17;;;8.20;;
14688;SDS011;7432;48.728;9.154;2024-03-23T12:46:30;9.90;;;9.10;;
14688;SDS011;7432;48.728;9.154;2024-03-23T12:48:55;10.50;;;9.50;;
14688;SDS011;7432;48.728;9.154;2024-03-23T12:51:24;10.70;;;9.70;;
14688;SDS011;7432;48.728;9.154;2024-03-23T12:53:49;10.67;;;9.63;;
14688;SDS011;7432;48.728;9.154;2024-03-23T12:56:16;10.37;;;9.43;;
14688;SDS011;7432;48.728;9.154;2024-03-23T12:58:42;12.70;;;9.50;;
14688;SDS011;7432;48.728;9.154;2024-03-23T13:01:08;12.17;;;9.40;;
14688;SDS011;7432;48.728;9.154;2024-03-23T13:03:33;10.77;;;9.67;;
14688;SDS011;7432;48.728;9.154;2024-03-23T13:06:00;10.23;;;9.33;;
14688;SDS011;7432;48.728;9.154;2024-03-23T13:08:26;11.40;;;10.20;;
14688;SDS011;7432;48.728;9.154;2024-03-23T13:10:53;10.10;;;9.20;;
14688;SDS011;7432;48.728;9.154;2024-03-23T13:13:18;11.13;;;9.93;;
14688;SDS011;7432;48.728;9.154;2024-03-23T13:15:49;11.17;;;10.07;;
14688;SDS011;7432;48.728;9.154;2024-03-23T13:18:14;11.00;;;10.10;;
14688;SDS011;7432;48.728;9.154;2024-03-23T13:20:41;10.90;;;9.90;;
14688;SDS011;7432;48.728;9.154;2024-03-23T13:23:06;10.97;;;9.93;;
14688;SDS011;7432;48.728;9.154;2024-03-23T13:25:34;10.93;;;9.23;;
14688;SDS011;7432;48.728;9.154;2024-03-23T13:27:59;10.10;;;9.30;;
14688;SDS011;7432;48.728;9.154;2024-03-23T13:30:27;9.87;;;9.00;;
14688;SDS011;7432;48.728;9.154;2024-03-23T13:32:52;12.33;;;9.50;;
14688;SDS011;7432;48.728;9.154;2024-03-23T13:35:19;10.30;;;9.30;;
14688;SDS011;7432;48.728;9.154;2024-03-23T13:37:44;9.10;;;8.50;;
14688;SDS011;7432;48.728;9.154;2024-03-23T13:40:11;9.67;;;8.90;;
14688;SDS011;7432;48.728;9.154;2024-03-23T13:42:38;8.67;;;8.07;;
14688;SDS011;7432;48.728;9.154;2024-03-23T13:45:04;9.37;;;8.67;;
14688;SDS011;7432;48.728;9.154;2024-03-23T13:47:30;11.33;;;9.13;;
14688;SDS011;7432;48.728;9.154;2024-03-23T13:49:57;8.90;;;8.10;;
14688;SDS011;7432;48.728;9.154;2024-03-23T13:52:23;9.50;;;8.90;;
14688;SDS011;7432;48.728;9.154;2024-03-23T13:54:50;9.53;;;8.70;;
14688;SDS011;7432;48.728;9.154;2024-03-23T13:57:16;9.80;;;8.87;;
14688;SDS011;7432;48.728;9.154;2024-03-23T13:59:47;9.93;;;9.23;;
14688;SDS011;7432;48.728;9.154;2024-03-23T14:02:14;9.70;;;8.83;;
14688;SDS011;7432;48.728;9.154;2024-03-23T14:04:40;9.60;;;8.63;;
14688;SDS011;7432;48.728;9.154;2024-03-23T14:07:05;9.80;;;8.87;;
14688;SDS011;7432;48.728;9.154;2024-03-23T14:09:32;14.00;;;12.00;;
14688;SDS011;7432;48.728;9.154;2024-03-23T14:11:58;19.23;;;15.70;;
14688;SDS011;7432;48.728;9.154;2024-03-23T14:14:25;22.83;;;20.60;;
14688;SDS011;7432;48.728;9.154;2024-03-23T14:16:52;9.73;;;9.13;;
14688;SDS011;7432;48.728;9.154;2024-03-23T14:19:18;10.53;;;8.57;;
14688;SDS011;7432;48.728;9.154;2024-03-23T14:21:44;9.57;;;8.73;;
14688;SDS011;7432;48.728;9.154;2024-03-23T14:24:11;9.70;;;9.00;;
14688;SDS011;7432;48.728;9.154;2024-03-23T14:26:36;8.40;;;7.90;;
14688;SDS011;7432;48.728;9.154;2024-03-23T14:29:03;8.70;;;8.20;;
14688;SDS011;7432;48.728;9.154;2024-03-23T14:31:29;9.00;;;8.40;;
14688;SDS011;7432;48.728;9.154;2024-03-23T14:33:56;9.43;;;8.73;;
14688;SDS011;7432;48.728;9.154;2024-03-23T14:36:22;8.53;;;8.00;;
14688;SDS011;7432;48.728;9.154;2024-03-23T14:38:49;9.47;;;8.80;;
14688;SDS011;7432;48.728;9.154;2024-03-23T14:41:15;9.30;;;8.70;;
14688;SDS011;7432;48.728;9.154;2024-03-23T14:43:42;8.77;;;8.07;;
14688;SDS011;7432;48.728;9.154;2024-03-23T14:46:09;9.43;;;8.73;;
14688;SDS011;7432;48.728;9.154;2024-03-23T14:48:36;9.40;;;8.70;;
14688;SDS011;7432;48.728;9.154;2024-03-23T14:51:03;8.60;;;8.10;;
14688;SDS011;7432;48.728;9.154;2024-03-23T14:53:30;8.67;;;8.07;;
14688;SDS011;7432;48.728;9.154;2024-03-23T14:55:56;8.47;;;7.93;;
14688;SDS011;7432;48.728;9.154;2024-03-23T14:58:24;9.13;;;8.43;;
14688;SDS011;7432;48.728;9.154;2024-03-23T15:00:50;10.20;;;8.90;;
14688;SDS011;7432;48.728;9.154;2024-03-23T15:03:17;8.73;;;8.07;;
14688;SDS011;7432;48.728;9.154;2024-03-23T15:05:51;8.87;;;7.70;;
14688;SDS011;7432;48.728;9.154;2024-03-23T15:08:19;9.23;;;8.63;;
14688;SDS011;7432;48.728;9.154;2024-03-23T15:10:44;9.80;;;9.00;;
14688;SDS011;7432;48.728;9.154;2024-03-23T15:13:11;10.20;;;9.33;;
14688;SDS011;7432;48.728;9.154;2024-03-23T15:15:37;9.63;;;8.93;;
14688;SDS011;7432;48.728;9.154;2024-03-23T15:18:05;9.23;;;8.53;;
14688;SDS011;7432;48.728;9.154;2024-03-23T15:20:32;9.63;;;9.03;;
14688;SDS011;7432;48.728;9.154;2024-03-23T15:23:00;10.70;;;9.90;;
14688;SDS011;7432;48.728;9.154;2024-03-23T15:25:27;8.47;;;7.77;;
14688;SDS011;7432;48.728;9.154;2024-03-23T15:27:53;9.23;;;8.63;;
14688;SDS011;7432;48.728;9.154;2024-03-23T15:30:19;8.73;;;8.23;;
14688;SDS011;7432;48.728;9.154;2024-03-23T15:32:46;9.03;;;8.23;;
14688;SDS011;7432;48.728;9.154;2024-03-23T15:35:12;9.60;;;8.80;;
14688;SDS011;7432;48.728;9.154;2024-03-23T15:37:38;9.30;;;8.50;;
14688;SDS011;7432;48.728;9.154;2024-03-23T15:40:04;9.60;;;8.90;;